Time;durP1;ratioP1;P1;durP2;ratioP2;P2;SDS_P1;SDS_P2;PMS_P1;PMS_P2;Temp;Humidity;BMP_temperature;BMP_pressure;BME280_temperature;BME280_humidity;BME280_pressure;Samples;Min_cycle;Max_cycle;Signal;HPM_P1;HPM_P2
2022/04/05 00:02:22;;;;;;;0.17;0.17;;;;;;;7.34;100.00;99150.25;5004879;28;20420;-62
2022/04/05 00:04:47;;;;;;;0.10;0.10;;;;;;;7.46;98.52;99140.03;5006424;28;20092;-58
2022/04/05 00:07:13;;;;;;;0.20;0.20;;;;;;;7.57;98.78;99134.75;5008112;28;20074;-60
2022/04/05 00:09:38;;;;;;;0.45;0.45;;;;;;;7.48;98.89;99153.81;5008175;28;20069;-59
2022/04/05 00:12:04;;;;;;;0.10;0.10;;;;;;;7.49;99.37;99143.88;5010480;28;20037;-61
2022/04/05 00:14:30;;;;;;;0.10;0.10;;;;;;;7.57;98.74;99137.44;5009242;28;20037;-63
2022/04/05 00:16:55;;;;;;;0.10;0.10;;;;;;;7.40;99.63;99151.44;5008831;28;20038;-60
2022/04/05 00:19:22;;;;;;;0.10;0.10;;;;;;;7.37;99.63;99149.50;5006877;28;20176;-60
2022/04/05 00:21:48;;;;;;;0.10;0.10;;;;;;;7.24;100.00;99144.44;5009561;28;20034;-59
2022/04/05 00:24:15;;;;;;;0.20;0.20;;;;;;;7.21;100.00;99150.53;5008247;28;20475;-59
2022/04/05 00:26:40;;;;;;;0.10;0.10;;;;;;;7.31;100.00;99146.41;5008347;28;20030;-59
2022/04/05 00:29:06;;;;;;;0.15;0.15;;;;;;;7.37;100.00;99144.94;5007218;28;20032;-59
2022/04/05 00:31:31;;;;;;;0.10;0.10;;;;;;;7.34;100.00;99145.66;5005970;28;20495;-59
2022/04/05 00:33:57;;;;;;;0.10;0.10;;;;;;;7.18;100.00;99151.25;5003775;28;20168;-62
2022/04/05 00:36:22;;;;;;;0.10;0.10;;;;;;;7.23;100.00;99142.91;5006523;28;20030;-61
2022/04/05 00:38:48;;;;;;;0.20;0.20;;;;;;;7.46;100.00;99145.38;5006937;28;20038;-60
2022/04/05 00:41:13;;;;;;;1.10;1.10;;;;;;;7.40;100.00;99146.09;5004146;28;20040;-61
2022/04/05 00:43:40;;;;;;;0.20;0.20;;;;;;;7.49;100.00;99149.97;5006488;28;20038;-59
2022/04/05 00:46:06;;;;;;;0.10;0.10;;;;;;;7.37;100.00;99150.28;5006124;28;20040;-61
2022/04/05 00:48:50;;;;;;;1.13;1.13;;;;;;;7.51;99.79;99147.72;4990187;28;20148;-59
2022/04/05 00:51:17;;;;;;;0.13;0.13;;;;;;;7.44;99.71;99162.94;4989981;28;20041;-61
2022/04/05 00:53:48;;;;;;;0.10;0.10;;;;;;;7.35;100.00;99152.56;5009661;28;20034;-63
2022/04/05 00:56:15;;;;;;;0.10;0.10;;;;;;;7.46;99.45;99150.75;5004474;28;20502;-57
2022/04/05 00:58:45;;;;;;;0.10;0.10;;;;;;;7.25;99.89;99154.03;5008276;28;20411;-59
2022/04/05 01:01:15;;;;;;;0.10;0.10;;;;;;;7.25;99.91;99151.34;5009023;28;20046;-60
2022/04/05 01:03:48;;;;;;;0.25;0.20;;;;;;;7.23;100.00;99163.53;5006901;28;20033;-61
2022/04/05 01:06:18;;;;;;;0.50;0.50;;;;;;;7.06;100.00;99156.13;5008775;28;20033;-57
2022/04/05 01:08:46;;;;;;;0.10;0.10;;;;;;;7.09;100.00;99161.50;5008641;28;20524;-60
2022/04/05 01:11:12;;;;;;;0.10;0.10;;;;;;;7.12;100.00;99166.09;5008740;28;20036;-59
2022/04/05 01:13:37;;;;;;;0.10;0.10;;;;;;;7.36;99.96;99166.69;5007369;28;20037;-61
2022/04/05 01:16:03;;;;;;;0.10;0.10;;;;;;;7.44;99.30;99168.31;5008007;28;20092;-61
2022/04/05 01:18:29;;;;;;;0.10;0.10;;;;;;;7.45;99.36;99172.53;5009423;28;20062;-61
2022/04/05 01:20:56;;;;;;;0.10;0.10;;;;;;;7.17;100.00;99165.78;5010802;28;20033;-58
2022/04/05 01:23:23;;;;;;;0.10;0.10;;;;;;;7.37;100.00;99170.94;5010810;28;20052;-61
2022/04/05 01:25:49;;;;;;;0.20;0.20;;;;;;;7.50;99.06;99177.53;5013790;28;20041;-62
2022/04/05 01:28:14;;;;;;;0.20;0.20;;;;;;;7.45;98.68;99175.22;5011980;28;20030;-60
2022/04/05 01:30:40;;;;;;;0.10;0.10;;;;;;;7.34;99.42;99180.47;5014812;28;20559;-61
2022/04/05 01:33:06;;;;;;;0.10;0.10;;;;;;;7.49;97.47;99182.13;5014203;28;20045;-61
2022/04/05 01:35:34;;;;;;;0.20;0.20;;;;;;;7.50;97.12;99175.63;5013791;28;20038;-64
2022/04/05 01:38:02;;;;;;;0.10;0.10;;;;;;;7.45;97.92;99180.56;5012934;28;20117;-62
2022/04/05 01:40:28;;;;;;;0.10;0.10;;;;;;;7.45;97.38;99175.22;5015025;28;20120;-59
2022/04/05 01:42:53;;;;;;;0.10;0.10;;;;;;;7.27;98.02;99175.84;5016275;28;20470;-59
2022/04/05 01:45:19;;;;;;;0.40;0.40;;;;;;;7.34;98.07;99180.47;5014478;28;20034;-62
2022/04/05 01:47:45;;;;;;;0.10;0.10;;;;;;;7.29;99.25;99183.50;5015186;28;20034;-64
2022/04/05 01:50:10;;;;;;;0.10;0.10;;;;;;;7.30;98.60;99177.75;5015492;28;20038;-62
2022/04/05 01:52:35;;;;;;;0.10;0.10;;;;;;;7.24;99.25;99176.56;5013823;28;20037;-59
2022/04/05 01:55:01;;;;;;;0.20;0.20;;;;;;;7.34;99.33;99185.06;5005313;28;20068;-60
2022/04/05 01:57:27;;;;;;;0.45;0.45;;;;;;;7.28;99.02;99188.06;5014347;28;20109;-62
2022/04/05 01:59:53;;;;;;;0.10;0.10;;;;;;;7.21;99.27;99188.00;5015745;28;20129;-58
2022/04/05 02:02:18;;;;;;;0.10;0.10;;;;;;;7.24;97.63;99192.63;5009146;28;20447;-60
2022/04/05 02:04:45;;;;;;;0.17;0.17;;;;;;;7.14;98.63;99192.53;5021303;28;20030;-60
2022/04/05 02:07:14;;;;;;;0.10;0.10;;;;;;;7.18;98.48;99193.34;5029604;28;20389;-62
2022/04/05 02:09:40;;;;;;;0.10;0.10;;;;;;;7.19;96.71;99192.19;5014042;28;20069;-63
2022/04/05 02:12:07;;;;;;;0.10;0.10;;;;;;;7.12;97.27;99192.88;5015324;28;20076;-63
2022/04/05 02:14:41;;;;;;;0.10;0.10;;;;;;;7.18;95.71;99198.69;5015418;28;20120;-58
2022/04/05 02:17:14;;;;;;;0.10;0.10;;;;;;;7.17;96.36;99192.56;5013653;28;20095;-60
2022/04/05 02:19:41;;;;;;;0.10;0.10;;;;;;;7.02;98.48;99200.81;5011483;28;20053;-59
2022/04/05 02:22:08;;;;;;;0.10;0.10;;;;;;;7.01;97.10;99205.38;5014696;28;20422;-58
2022/04/05 02:24:35;;;;;;;0.10;0.10;;;;;;;7.09;96.91;99203.56;5014340;28;20037;-57
2022/04/05 02:27:02;;;;;;;0.10;0.10;;;;;;;7.19;96.83;99202.91;5010410;28;20481;-61
2022/04/05 02:29:28;;;;;;;0.10;0.10;;;;;;;7.24;96.08;99208.69;5002456;28;20404;-59
2022/04/05 02:32:00;;;;;;;0.10;0.10;;;;;;;7.19;96.22;99203.66;5012833;28;20038;-59
2022/04/05 02:34:26;;;;;;;0.10;0.10;;;;;;;7.15;97.18;99212.78;5009631;28;20060;-60
2022/04/05 02:36:58;;;;;;;0.10;0.10;;;;;;;7.19;97.18;99225.09;5009516;28;20752;-58
2022/04/05 02:39:24;;;;;;;0.17;0.17;;;;;;;7.35;97.20;99234.78;5010854;28;20069;-59
2022/04/05 02:41:54;;;;;;;0.10;0.10;;;;;;;7.28;98.00;99246.97;5006107;28;20065;-60
2022/04/05 02:44:21;;;;;;;0.10;0.10;;;;;;;7.19;98.53;99238.47;5008792;28;20038;-60
2022/04/05 02:46:49;;;;;;;0.80;0.80;;;;;;;7.03;98.09;99229.09;5010283;28;20502;-59
2022/04/05 02:49:15;;;;;;;0.30;0.30;;;;;;;6.85;97.93;99236.16;5011223;28;20109;-56
2022/04/05 02:51:44;;;;;;;0.10;0.10;;;;;;;6.96;97.30;99237.06;5003612;28;20022;-60
2022/04/05 02:54:17;;;;;;;0.10;0.10;;;;;;;6.87;97.91;99242.69;4991380;28;20041;-57
2022/04/05 02:56:43;;;;;;;0.10;0.10;;;;;;;6.83;98.25;99241.13;4994794;28;20112;-61
2022/04/05 02:59:10;;;;;;;0.20;0.20;;;;;;;6.81;97.27;99251.41;5008902;28;20038;-59
2022/04/05 03:01:36;;;;;;;0.15;0.15;;;;;;;6.51;99.58;99248.72;4992672;28;20029;-60
2022/04/05 03:04:08;;;;;;;0.10;0.10;;;;;;;6.62;98.63;99246.94;5009916;28;20049;-61
2022/04/05 03:06:35;;;;;;;0.10;0.10;;;;;;;6.58;99.53;99254.16;4992225;28;20022;-57
2022/04/05 03:09:01;;;;;;;0.20;0.20;;;;;;;6.68;98.26;99252.78;4997243;28;20736;-60
2022/04/05 03:11:28;;;;;;;0.20;0.20;;;;;;;6.52;99.06;99258.31;5010626;28;20417;-61
2022/04/05 03:13:55;;;;;;;0.10;0.10;;;;;;;6.62;99.38;99257.66;5009018;28;20080;-61
2022/04/05 03:16:21;;;;;;;0.10;0.10;;;;;;;6.74;97.71;99253.97;5015459;28;20116;-53
2022/04/05 03:18:50;;;;;;;0.10;0.10;;;;;;;6.66;98.58;99250.44;4991542;28;20468;-58
2022/04/05 03:21:17;;;;;;;0.10;0.10;;;;;;;6.74;98.25;99260.09;4991164;28;20399;-56
2022/04/05 03:23:42;;;;;;;0.10;0.10;;;;;;;6.60;99.15;99251.91;5008771;28;20040;-60
2022/04/05 03:26:08;;;;;;;0.10;0.10;;;;;;;6.44;100.00;99266.56;5011038;28;20073;-59
2022/04/05 03:28:35;;;;;;;0.20;0.20;;;;;;;6.56;99.09;99259.13;5001024;28;20026;-59
2022/04/05 03:31:02;;;;;;;0.10;0.10;;;;;;;6.50;100.00;99257.91;5007468;28;20523;-60
2022/04/05 03:33:30;;;;;;;0.20;0.20;;;;;;;6.69;98.05;99268.47;5006880;28;20026;-62
2022/04/05 03:35:56;;;;;;;0.20;0.20;;;;;;;6.70;97.62;99269.22;4994015;28;20109;-60
2022/04/05 03:38:23;;;;;;;0.10;0.10;;;;;;;6.46;98.50;99286.47;4987951;28;20400;-61
2022/04/05 03:40:50;;;;;;;0.10;0.10;;;;;;;6.62;97.69;99280.97;5008127;28;20033;-58
2022/04/05 03:43:16;;;;;;;0.10;0.10;;;;;;;6.48;98.16;99278.88;5008078;28;20037;-59
2022/04/05 03:45:47;;;;;;;0.10;0.10;;;;;;;6.41;98.67;99289.44;5005288;28;20057;-59
2022/04/05 03:48:13;;;;;;;0.10;0.10;;;;;;;6.21;99.26;99296.03;5009450;28;20308;-63
2022/04/05 03:50:39;;;;;;;0.10;0.10;;;;;;;6.17;100.00;99293.31;5010185;28;20034;-60
2022/04/05 03:53:04;;;;;;;0.10;0.10;;;;;;;6.25;99.34;99300.28;5010027;28;20068;-59
2022/04/05 03:55:33;;;;;;;0.10;0.10;;;;;;;6.36;98.66;99295.91;5012795;28;20025;-59
2022/04/05 03:58:01;;;;;;;0.10;0.10;;;;;;;6.43;97.96;99297.13;4997624;28;20042;-59
2022/04/05 04:00:29;;;;;;;0.10;0.10;;;;;;;6.27;98.14;99294.59;5007565;28;20527;-61
2022/04/05 04:03:06;;;;;;;0.20;0.20;;;;;;;6.22;98.00;99298.34;5003273;22;20030;-62
2022/04/05 04:05:32;;;;;;;0.10;0.10;;;;;;;6.26;99.88;99307.19;5010123;28;20048;-60
2022/04/05 04:07:59;;;;;;;0.30;0.30;;;;;;;6.06;100.00;99312.97;5010351;28;20028;-60
2022/04/05 04:10:26;;;;;;;0.10;0.10;;;;;;;6.23;99.11;99305.22;5013357;28;20646;-60
2022/04/05 04:12:56;;;;;;;0.10;0.10;;;;;;;6.37;98.18;99312.69;5016591;28;20483;-60
2022/04/05 04:15:24;;;;;;;0.20;0.20;;;;;;;6.16;99.81;99310.47;4998178;28;20037;-60
2022/04/05 04:17:51;;;;;;;0.20;0.20;;;;;;;6.14;99.75;99317.28;5021670;28;20042;-60
2022/04/05 04:20:19;;;;;;;0.20;0.20;;;;;;;6.33;98.78;99317.19;5011940;28;20622;-61
2022/04/05 04:22:45;;;;;;;0.10;0.10;;;;;;;6.21;99.04;99312.81;5011829;28;20479;-60
2022/04/05 04:25:10;;;;;;;0.10;0.10;;;;;;;6.19;99.04;99323.09;5030293;28;20048;-60
2022/04/05 04:27:36;;;;;;;0.10;0.10;;;;;;;6.39;97.51;99321.13;5005634;28;20510;-60
2022/04/05 04:30:03;;;;;;;0.10;0.10;;;;;;;6.28;97.73;99312.94;5029340;28;20025;-60
2022/04/05 04:32:28;;;;;;;0.10;0.10;;;;;;;6.24;98.51;99322.81;5003862;28;20044;-60
2022/04/05 04:34:53;;;;;;;0.10;0.10;;;;;;;6.27;98.37;99329.34;5005193;28;20117;-60
2022/04/05 04:37:19;;;;;;;0.10;0.10;;;;;;;6.27;98.57;99326.69;5008298;28;20293;-61
2022/04/05 04:39:44;;;;;;;3.92;0.95;;;;;;;6.37;97.19;99336.75;5007998;28;20037;-60
2022/04/05 04:42:12;;;;;;;0.15;0.15;;;;;;;6.14;98.64;99333.31;5007800;28;20080;-59
2022/04/05 04:44:38;;;;;;;0.10;0.10;;;;;;;6.28;97.27;99331.66;4993611;28;20033;-60
2022/04/05 04:47:04;;;;;;;0.13;0.13;;;;;;;6.21;96.77;99338.81;4992985;28;20130;-58
2022/04/05 04:49:29;;;;;;;0.10;0.10;;;;;;;6.11;97.49;99340.16;5015286;28;20503;-61
2022/04/05 04:51:54;;;;;;;0.10;0.10;;;;;;;6.19;98.16;99346.41;5011581;28;20124;-62
2022/04/05 04:54:20;;;;;;;0.10;0.10;;;;;;;5.90;99.24;99349.72;4992302;28;20048;-59
2022/04/05 04:56:45;;;;;;;0.10;0.10;;;;;;;5.98;99.72;99351.41;5026649;28;20030;-61
2022/04/05 04:59:11;;;;;;;0.10;0.10;;;;;;;5.88;100.00;99360.00;5026427;28;20053;-60
2022/04/05 05:01:36;;;;;;;0.40;0.40;;;;;;;5.89;100.00;99359.63;5021265;28;20060;-59
2022/04/05 05:04:02;;;;;;;0.20;0.20;;;;;;;6.14;98.32;99360.81;4998503;28;20033;-61
2022/04/05 05:06:27;;;;;;;0.10;0.10;;;;;;;6.16;97.20;99363.13;5015956;28;20472;-60
2022/04/05 05:08:53;;;;;;;0.10;0.10;;;;;;;6.25;97.12;99374.38;4994437;28;20033;-61
2022/04/05 05:11:18;;;;;;;0.10;0.10;;;;;;;6.23;97.39;99374.72;5025896;28;20036;-59
2022/04/05 05:13:43;;;;;;;0.10;0.10;;;;;;;6.06;97.79;99375.19;5007202;28;20112;-59
2022/04/05 05:16:09;;;;;;;0.10;0.10;;;;;;;6.17;98.34;99378.84;5011307;28;20468;-58
2022/04/05 05:18:35;;;;;;;0.10;0.10;;;;;;;6.31;96.68;99381.72;5026792;28;20045;-61
2022/04/05 05:21:01;;;;;;;0.10;0.10;;;;;;;6.51;97.05;99387.00;5006370;28;20033;-60
2022/04/05 05:23:26;;;;;;;0.10;0.10;;;;;;;6.61;95.83;99381.81;5016286;28;20518;-60
2022/04/05 05:25:52;;;;;;;0.00;0.00;;;;;;;6.62;96.19;99391.38;5011401;28;20080;-59
2022/04/05 05:28:17;;;;;;;0.10;0.10;;;;;;;6.57;97.36;99391.69;5023239;28;20491;-58
2022/04/05 05:30:43;;;;;;;0.10;0.10;;;;;;;6.61;96.66;99389.84;5017295;28;20029;-60
2022/04/05 05:33:08;;;;;;;0.10;0.10;;;;;;;6.57;97.09;99394.34;5042391;28;20033;-60
2022/04/05 05:35:34;;;;;;;0.10;0.10;;;;;;;6.38;97.63;99395.22;5023059;28;20037;-60
2022/04/05 05:37:59;;;;;;;0.43;0.43;;;;;;;6.55;97.35;99406.53;5011209;28;20065;-61
2022/04/05 05:40:25;;;;;;;0.10;0.10;;;;;;;6.55;97.40;99414.56;5007038;28;20764;-61
2022/04/05 05:42:52;;;;;;;0.10;0.10;;;;;;;6.63;97.29;99408.97;5019966;28;20033;-62
2022/04/05 05:45:18;;;;;;;0.10;0.10;;;;;;;6.60;96.26;99414.28;5025684;28;20057;-59
2022/04/05 05:47:43;;;;;;;0.10;0.10;;;;;;;6.66;96.54;99410.91;5018270;28;20080;-56
2022/04/05 05:50:10;;;;;;;0.32;0.32;;;;;;;6.57;96.89;99412.28;5028187;28;20423;-60
2022/04/05 05:52:36;;;;;;;0.10;0.10;;;;;;;6.67;96.67;99415.16;5030679;28;20112;-58
2022/04/05 05:55:02;;;;;;;0.10;0.10;;;;;;;6.69;96.39;99412.88;5009357;28;20037;-58
2022/04/05 05:57:28;;;;;;;0.10;0.10;;;;;;;6.78;95.20;99421.44;5021662;28;20045;-59
2022/04/05 05:59:53;;;;;;;0.10;0.10;;;;;;;6.78;94.90;99429.44;5026171;28;20457;-59
2022/04/05 06:02:19;;;;;;;0.10;0.10;;;;;;;6.76;95.34;99434.38;5020323;28;20428;-60
2022/04/05 06:04:46;;;;;;;0.30;0.30;;;;;;;6.81;94.65;99423.41;5026684;28;20025;-60
2022/04/05 06:07:12;;;;;;;0.10;0.10;;;;;;;6.85;93.58;99426.88;4995813;28;20065;-60
2022/04/05 06:09:37;;;;;;;0.40;0.40;;;;;;;6.73;95.15;99440.47;5030748;28;20076;-59
2022/04/05 06:12:05;;;;;;;0.10;0.10;;;;;;;7.02;93.22;99442.44;5030733;28;20030;-60
2022/04/05 06:14:30;;;;;;;0.10;0.10;;;;;;;6.98;93.87;99441.63;5027319;28;20099;-60
2022/04/05 06:16:56;;;;;;;0.10;0.10;;;;;;;6.98;94.57;99451.53;5031088;28;20041;-61
2022/04/05 06:19:21;;;;;;;0.10;0.10;;;;;;;7.19;92.47;99454.53;5020883;28;20057;-58
2022/04/05 06:21:46;;;;;;;0.10;0.10;;;;;;;7.19;92.98;99455.31;5022030;28;20038;-59
2022/04/05 06:24:12;;;;;;;0.10;0.10;;;;;;;7.12;93.08;99465.13;5005119;28;20049;-59
2022/04/05 06:26:37;;;;;;;0.00;0.00;;;;;;;7.05;93.51;99456.97;5021362;28;20290;-58
2022/04/05 06:29:03;;;;;;;0.10;0.10;;;;;;;7.38;92.50;99459.75;5004360;28;20033;-57
2022/04/05 06:31:28;;;;;;;0.10;0.10;;;;;;;7.38;92.42;99467.00;5020128;28;20526;-58
2022/04/05 06:33:56;;;;;;;0.10;0.10;;;;;;;7.45;92.35;99464.44;5025962;28;20037;-59
2022/04/05 06:36:21;;;;;;;0.10;0.10;;;;;;;7.44;92.79;99470.91;5020767;28;20095;-57
2022/04/05 06:38:46;;;;;;;0.10;0.10;;;;;;;7.36;94.48;99474.63;5014365;28;20034;-58
2022/04/05 06:41:12;;;;;;;0.10;0.10;;;;;;;7.43;94.09;99477.41;5023105;28;20395;-60
2022/04/05 06:43:37;;;;;;;0.10;0.10;;;;;;;7.61;94.47;99475.72;5030434;28;20446;-59
2022/04/05 06:46:03;;;;;;;1.52;0.52;;;;;;;7.82;93.84;99474.09;5007152;28;20032;-60
2022/04/05 06:48:28;;;;;;;0.10;0.10;;;;;;;8.11;91.71;99477.84;5024789;28;20037;-61
2022/04/05 06:50:54;;;;;;;0.10;0.10;;;;;;;8.16;90.94;99488.25;5022418;28;20029;-61
2022/04/05 06:53:19;;;;;;;0.10;0.10;;;;;;;8.34;90.49;99496.53;5022010;28;20124;-59
2022/04/05 06:55:45;;;;;;;0.10;0.10;;;;;;;8.36;90.17;99495.03;5026093;28;20032;-59
2022/04/05 06:58:10;;;;;;;0.10;0.10;;;;;;;8.49;89.77;99492.84;5029678;28;20045;-58
2022/04/05 07:00:37;;;;;;;0.10;0.10;;;;;;;8.43;90.02;99497.78;5032026;28;20462;-57
2022/04/05 07:03:04;;;;;;;0.10;0.10;;;;;;;8.21;89.93;99496.75;5042200;28;20025;-56
2022/04/05 07:05:30;;;;;;;0.10;0.10;;;;;;;8.09;90.01;99496.25;5030300;28;20037;-61
2022/04/05 07:07:56;;;;;;;0.10;0.10;;;;;;;8.18;89.92;99497.50;5020869;28;20096;-60
2022/04/05 07:10:23;;;;;;;0.10;0.10;;;;;;;8.45;89.52;99498.19;5020995;28;20741;-60
2022/04/05 07:12:49;;;;;;;0.57;0.57;;;;;;;8.46;89.04;99498.94;5016255;28;20400;-60
2022/04/05 07:15:15;;;;;;;0.47;0.47;;;;;;;8.47;88.94;99500.47;5023140;28;20037;-61
2022/04/05 07:17:41;;;;;;;0.20;0.20;;;;;;;8.69;86.39;99499.56;5024021;28;20039;-59
2022/04/05 07:20:09;;;;;;;0.10;0.10;;;;;;;8.68;86.31;99498.00;5020314;28;20442;-59
2022/04/05 07:22:36;;;;;;;0.20;0.20;;;;;;;8.45;86.99;99498.19;5017862;28;20502;-60
2022/04/05 07:25:02;;;;;;;0.10;0.10;;;;;;;8.58;86.61;99498.66;5020330;28;20029;-61
2022/04/05 07:27:28;;;;;;;0.10;0.10;;;;;;;8.53;88.09;99507.84;5023148;28;20037;-60
2022/04/05 07:29:53;;;;;;;0.17;0.17;;;;;;;8.46;88.38;99496.28;5019492;28;20033;-61
2022/04/05 07:32:18;;;;;;;0.10;0.10;;;;;;;8.97;87.80;99507.81;5029135;28;20039;-60
2022/04/05 07:34:44;;;;;;;0.10;0.10;;;;;;;9.15;85.92;99510.66;5022514;28;20050;-59
2022/04/05 07:37:11;;;;;;;0.10;0.10;;;;;;;9.03;86.39;99503.66;5022974;28;20044;-61
2022/04/05 07:39:38;;;;;;;0.10;0.10;;;;;;;8.90;87.26;99507.78;5017916;28;20045;-61
2022/04/05 07:42:04;;;;;;;0.10;0.10;;;;;;;8.79;86.73;99510.38;5017907;28;20388;-60
2022/04/05 07:44:29;;;;;;;0.10;0.10;;;;;;;8.75;88.12;99514.19;5014045;28;20045;-61
2022/04/05 07:46:55;;;;;;;0.10;0.10;;;;;;;8.58;88.58;99512.84;5023933;28;20113;-61
2022/04/05 07:49:21;;;;;;;0.10;0.10;;;;;;;8.71;89.04;99514.13;5018268;28;20040;-61
2022/04/05 07:51:46;;;;;;;0.10;0.10;;;;;;;8.85;87.12;99513.47;5017955;28;20548;-61
2022/04/05 07:54:11;;;;;;;0.10;0.10;;;;;;;8.95;85.79;99516.25;5025927;28;20029;-60
2022/04/05 07:56:37;;;;;;;0.10;0.10;;;;;;;9.11;85.99;99510.63;5026768;28;20401;-61
2022/04/05 07:59:02;;;;;;;0.10;0.10;;;;;;;9.24;86.24;99511.88;5028138;28;20088;-60
2022/04/05 08:01:29;;;;;;;0.10;0.10;;;;;;;9.42;85.39;99525.41;5024962;28;20049;-60
2022/04/05 08:03:58;;;;;;;1.70;0.68;;;;;;;9.34;86.09;99521.91;5005360;28;20033;-61
2022/04/05 08:06:28;;;;;;;0.17;0.17;;;;;;;9.35;85.74;99523.44;5011939;28;20033;-59
2022/04/05 08:08:54;;;;;;;0.20;0.20;;;;;;;9.63;83.79;99515.56;5026438;28;20041;-60
2022/04/05 08:11:20;;;;;;;0.10;0.10;;;;;;;9.73;82.24;99530.22;5025294;28;20038;-59
2022/04/05 08:13:46;;;;;;;0.10;0.10;;;;;;;9.82;81.68;99511.81;5029283;28;20037;-60
2022/04/05 08:16:11;;;;;;;0.30;0.30;;;;;;;9.71;80.46;99517.16;5009874;28;20037;-60
2022/04/05 08:18:37;;;;;;;0.20;0.20;;;;;;;9.48;78.34;99515.84;5024635;28;20037;-60
2022/04/05 08:21:02;;;;;;;0.20;0.20;;;;;;;9.45;78.57;99517.38;5027413;28;20468;-61
2022/04/05 08:23:28;;;;;;;0.10;0.10;;;;;;;9.45;78.53;99520.06;5004638;28;20052;-59
2022/04/05 08:25:53;;;;;;;0.10;0.10;;;;;;;9.63;80.05;99520.94;5008690;28;20391;-60
2022/04/05 08:28:19;;;;;;;0.10;0.10;;;;;;;9.93;80.93;99518.00;5015158;28;21040;-60
2022/04/05 08:30:45;;;;;;;0.10;0.10;;;;;;;10.35;79.77;99517.41;4992702;28;20045;-59
2022/04/05 08:33:10;;;;;;;0.10;0.10;;;;;;;10.42;78.42;99523.56;5013286;28;20045;-60
2022/04/05 08:35:37;;;;;;;0.10;0.10;;;;;;;10.20;77.42;99516.59;5024225;28;20033;-61
2022/04/05 08:38:03;;;;;;;0.10;0.10;;;;;;;9.97;76.90;99522.25;5025703;28;20525;-59
2022/04/05 08:40:28;;;;;;;0.00;0.00;;;;;;;10.07;78.17;99520.75;5010444;28;20041;-61
2022/04/05 08:42:56;;;;;;;0.10;0.10;;;;;;;9.84;80.38;99531.03;5007488;28;20030;-59
2022/04/05 08:45:23;;;;;;;0.10;0.10;;;;;;;9.85;82.53;99530.63;5024667;28;20041;-60
2022/04/05 08:47:54;;;;;;;0.20;0.20;;;;;;;9.56;83.96;99514.75;5013316;28;20039;-60
2022/04/05 08:50:25;;;;;;;0.10;0.10;;;;;;;9.46;85.24;99513.56;5016620;28;20655;-61
2022/04/05 08:52:54;;;;;;;0.10;0.10;;;;;;;9.35;85.16;99520.00;5013604;28;20538;-58
2022/04/05 08:55:19;;;;;;;0.10;0.10;;;;;;;9.74;81.68;99519.06;5013521;28;20554;-59
2022/04/05 08:57:45;;;;;;;0.35;0.35;;;;;;;9.50;81.10;99517.03;4993928;28;20307;-59
2022/04/05 09:00:14;;;;;;;0.10;0.10;;;;;;;9.57;82.82;99521.66;5018815;28;20041;-61
2022/04/05 09:02:51;;;;;;;0.15;0.15;;;;;;;9.64;80.34;99516.34;5016068;28;20033;-59
2022/04/05 09:05:50;;;;;;;0.10;0.10;;;;;;;9.67;79.60;99520.94;5012929;28;20027;-60
2022/04/05 09:08:23;;;;;;;0.10;0.10;;;;;;;9.83;78.69;99518.75;4992213;28;20033;-60
2022/04/05 09:10:50;;;;;;;2.42;0.60;;;;;;;9.75;79.40;99525.22;5006836;28;20396;-59
2022/04/05 09:13:19;;;;;;;0.10;0.10;;;;;;;9.55;80.67;99540.06;5017281;28;20032;-60
2022/04/05 09:15:50;;;;;;;0.08;0.08;;;;;;;9.64;81.06;99535.16;5003069;28;20037;-60
2022/04/05 09:18:25;;;;;;;;;;;;;;;9.54;82.57;99573.47;4998159;28;20083;-59
2022/04/05 09:20:51;;;;;;;0.10;0.10;;;;;;;9.28;84.65;99565.59;5011438;28;20247;-60
2022/04/05 09:23:28;;;;;;;0.10;0.10;;;;;;;8.91;87.75;99561.09;5010270;28;20033;-60
2022/04/05 09:25:59;;;;;;;0.10;0.10;;;;;;;9.01;88.80;99557.75;5012633;28;20033;-60
2022/04/05 09:28:26;;;;;;;0.10;0.10;;;;;;;8.81;90.43;99556.41;5010863;28;20321;-60
2022/04/05 09:30:56;;;;;;;0.10;0.10;;;;;;;8.85;92.75;99546.47;5015539;28;20068;-60
2022/04/05 09:33:22;;;;;;;0.10;0.10;;;;;;;9.15;93.34;99548.25;4995536;28;21111;-60
2022/04/05 09:35:47;;;;;;;0.10;0.10;;;;;;;9.10;94.89;99544.75;5003983;28;20099;-59
2022/04/05 09:38:17;;;;;;;0.10;0.10;;;;;;;9.41;94.74;99538.06;5019185;28;20037;-59
2022/04/05 09:40:43;;;;;;;0.10;0.10;;;;;;;9.41;95.30;99540.75;5016129;28;20676;-61
2022/04/05 09:43:17;;;;;;;0.10;0.10;;;;;;;9.64;93.03;99535.91;5003979;28;20095;-60
2022/04/05 09:45:52;;;;;;;0.35;0.35;;;;;;;9.69;93.00;99540.16;5005221;28;20637;-60
2022/04/05 09:48:20;;;;;;;0.10;0.10;;;;;;;9.73;91.97;99543.66;4995673;28;20037;-60
2022/04/05 09:50:59;;;;;;;0.10;0.10;;;;;;;9.81;92.04;99537.16;5013445;28;20041;-61
2022/04/05 09:53:34;;;;;;;0.17;0.17;;;;;;;9.84;92.19;99541.78;4994349;28;20056;-61
2022/04/05 09:56:30;;;;;;;0.10;0.10;;;;;;;9.78;93.11;99544.06;4995060;28;20037;-61
2022/04/05 09:58:57;;;;;;;0.10;0.10;;;;;;;9.85;91.21;99537.94;5024630;28;20158;-61
2022/04/05 10:01:27;;;;;;;0.10;0.10;;;;;;;9.92;91.23;99532.59;5020225;28;20091;-60
2022/04/05 10:06:32;;;;;;;0.10;0.10;;;;;;;9.92;92.61;99529.91;5010951;28;20060;-65
2022/04/05 10:09:02;;;;;;;0.10;0.10;;;;;;;10.22;90.62;99527.75;4999386;28;20010;-66
2022/04/05 10:11:30;;;;;;;0.10;0.10;;;;;;;10.28;92.17;99526.22;5023198;28;20399;-64
2022/04/05 10:13:56;;;;;;;0.10;0.10;;;;;;;10.55;89.55;99532.81;5007223;28;20038;-64
2022/04/05 10:16:24;;;;;;;0.10;0.10;;;;;;;10.64;89.18;99530.56;4996803;28;20033;-65
2022/04/05 10:18:50;;;;;;;0.10;0.10;;;;;;;10.72;87.64;99532.09;4997309;28;20041;-64
2022/04/05 10:21:19;;;;;;;0.10;0.10;;;;;;;10.85;87.26;99541.34;4996937;28;20041;-60
2022/04/05 10:23:47;;;;;;;0.10;0.10;;;;;;;10.81;85.41;99531.72;4997068;28;20326;-64
2022/04/05 10:26:16;;;;;;;0.10;0.10;;;;;;;10.72;85.70;99534.03;4980757;28;20101;-62
2022/04/05 10:28:44;;;;;;;0.10;0.10;;;;;;;10.77;85.39;99539.03;4992646;28;20128;-62
2022/04/05 10:31:44;;;;;;;1.05;1.05;;;;;;;10.68;85.13;99525.91;5002412;28;20052;-64
2022/04/05 10:34:14;;;;;;;0.10;0.10;;;;;;;10.52;85.36;99536.28;4998222;28;20029;-62
2022/04/05 10:36:51;;;;;;;0.10;0.10;;;;;;;10.51;84.91;99537.44;4985877;28;20167;-60
2022/04/05 10:39:19;;;;;;;0.10;0.10;;;;;;;10.39;86.24;99540.50;4996427;28;20511;-63
2022/04/05 10:42:13;;;;;;;0.10;0.10;;;;;;;10.18;86.15;99536.97;4979599;28;20257;-61
2022/04/05 10:45:07;;;;;;;0.20;0.20;;;;;;;9.68;89.15;99538.59;5005632;28;20398;-64
2022/04/05 10:47:33;;;;;;;0.10;0.10;;;;;;;9.95;89.20;99537.22;4995289;28;20038;-65
2022/04/05 10:50:15;;;;;;;0.10;0.10;;;;;;;10.10;90.11;99541.56;4967942;28;20025;-63
2022/04/05 10:52:46;;;;;;;0.10;0.10;;;;;;;9.88;90.43;99531.81;4977857;28;20119;-63
2022/04/05 10:55:12;;;;;;;0.10;0.10;;;;;;;9.92;90.67;99535.28;4985688;28;20587;-62
2022/04/05 10:57:39;;;;;;;0.10;0.10;;;;;;;9.67;91.40;99532.47;4991975;28;20137;-62
2022/04/05 11:00:31;;;;;;;0.10;0.10;;;;;;;9.72;91.58;99539.41;4997161;28;20373;-63
2022/04/05 11:02:59;;;;;;;;;;;;;;;9.56;91.44;99536.25;5005609;28;20535;-63
2022/04/05 11:05:27;;;;;;;0.10;0.10;;;;;;;9.97;91.41;99532.22;5005241;28;19924;-63
2022/04/05 11:07:59;;;;;;;0.20;0.20;;;;;;;9.77;91.20;99541.75;5003599;28;20076;-63
2022/04/05 11:10:44;;;;;;;0.10;0.10;;;;;;;9.69;91.37;99543.63;5007070;28;20045;-62
2022/04/05 11:13:18;;;;;;;0.10;0.10;;;;;;;9.78;92.02;99536.00;5002986;28;20038;-63
2022/04/05 11:15:51;;;;;;;0.10;0.10;;;;;;;9.82;92.29;99528.72;5001542;28;20034;-63
2022/04/05 11:18:22;;;;;;;0.10;0.10;;;;;;;10.02;91.79;99537.25;5003862;28;20042;-64
2022/04/05 11:20:50;;;;;;;0.10;0.10;;;;;;;9.75;92.72;99535.97;4972757;28;20096;-63
2022/04/05 11:23:18;;;;;;;0.10;0.10;;;;;;;9.81;93.78;99537.91;4998586;28;20401;-63
2022/04/05 11:25:45;;;;;;;0.10;0.10;;;;;;;9.83;93.82;99537.56;5003277;28;20088;-60
2022/04/05 11:28:21;;;;;;;0.10;0.10;;;;;;;9.60;95.08;99529.75;5002755;28;20036;-63
2022/04/05 11:30:49;;;;;;;0.10;0.10;;;;;;;9.52;95.75;99533.56;5004036;28;20038;-63
2022/04/05 11:33:18;;;;;;;0.10;0.10;;;;;;;9.89;94.12;99538.75;5006005;28;20511;-62
2022/04/05 11:35:44;;;;;;;0.10;0.10;;;;;;;9.51;95.77;99540.06;5002716;28;20092;-61
2022/04/05 11:38:32;;;;;;;0.10;0.10;;;;;;;9.83;94.04;99538.31;4998457;28;20100;-64
2022/04/05 11:41:05;;;;;;;0.10;0.10;;;;;;;9.67;94.45;99537.88;5003424;28;20030;-62
2022/04/05 11:43:33;;;;;;;0.10;0.10;;;;;;;9.74;95.19;99539.78;4998882;28;20048;-59
2022/04/05 11:46:03;;;;;;;0.10;0.10;;;;;;;9.83;94.91;99537.56;5008351;28;20049;-63
2022/04/05 11:48:29;;;;;;;0.10;0.10;;;;;;;9.75;95.69;99541.34;5017693;28;20084;-61